Archival Weather

Snohomish County (Paine Fld)

Everett, Washington (KPAE)

Report from: Monday, November 20, 2023 4:53 PM PST
Current time: Sunday, February 25, 2024 12:57 PM PST

Current weather – Weather history – Daily summaries
Weather forecast

Temperature8.3°C (46.9°F)
Wind chill7.2°C (44.9°F)
Dew point1.7°C (35.1°F)
Winds 4 kts (2.1 m/s, 4.6 mph) East-Northeast (60°)
Visibility10 mi. (16.1 km)
Clouds Sky clear
Altimeter30.40 in.Hg (1029 mB)
Relative humidity63 %
Density altitude-1,262 ft. (-385 m)
Sea-level pressure103.0 kPa (1030 mB, 30.41 in.Hg)
Remarks Automated weather observing station with precipitation discriminator
Flight conditions Visual Meteorological Conditions
Raw dataKPAE 210053Z 06004KT 10SM CLR 08/02 A3040 RMK AO2 SLP299 T00830017
An error has occurred. This application may no longer respond until reloaded. Reload 🗙